sensor_id;sensor_type;location;lat;lon;timestamp;P1;durP1;ratioP1;P2;durP2;ratioP2
7398;SDS011;3740;50.700;7.184;2022-11-14T00:02:13;8.60;;;7.70;;
7398;SDS011;3740;50.700;7.184;2022-11-14T00:04:45;8.77;;;7.87;;
7398;SDS011;3740;50.700;7.184;2022-11-14T00:07:11;8.93;;;8.03;;
7398;SDS011;3740;50.700;7.184;2022-11-14T00:09:37;8.17;;;7.40;;
7398;SDS011;3740;50.700;7.184;2022-11-14T00:12:04;8.73;;;7.83;;
7398;SDS011;3740;50.700;7.184;2022-11-14T00:14:30;8.07;;;7.37;;
7398;SDS011;3740;50.700;7.184;2022-11-14T00:16:56;8.40;;;7.67;;
7398;SDS011;3740;50.700;7.184;2022-11-14T00:19:21;8.90;;;8.10;;
7398;SDS011;3740;50.700;7.184;2022-11-14T00:21:47;8.07;;;7.37;;
7398;SDS011;3740;50.700;7.184;2022-11-14T00:24:13;8.90;;;8.10;;
7398;SDS011;3740;50.700;7.184;2022-11-14T00:26:39;9.30;;;8.50;;
7398;SDS011;3740;50.700;7.184;2022-11-14T00:29:04;8.50;;;7.60;;
7398;SDS011;3740;50.700;7.184;2022-11-14T00:31:30;9.67;;;8.77;;
7398;SDS011;3740;50.700;7.184;2022-11-14T00:33:56;10.17;;;9.07;;
7398;SDS011;3740;50.700;7.184;2022-11-14T00:36:21;10.40;;;9.50;;
7398;SDS011;3740;50.700;7.184;2022-11-14T00:38:47;10.00;;;9.00;;
7398;SDS011;3740;50.700;7.184;2022-11-14T00:41:16;10.03;;;9.13;;
7398;SDS011;3740;50.700;7.184;2022-11-14T00:43:52;9.93;;;9.03;;
7398;SDS011;3740;50.700;7.184;2022-11-14T00:46:17;10.47;;;9.47;;
7398;SDS011;3740;50.700;7.184;2022-11-14T00:48:43;10.03;;;9.13;;
7398;SDS011;3740;50.700;7.184;2022-11-14T00:51:09;10.70;;;9.60;;
7398;SDS011;3740;50.700;7.184;2022-11-14T00:53:35;10.97;;;9.90;;
7398;SDS011;3740;50.700;7.184;2022-11-14T00:56:02;11.10;;;10.10;;
7398;SDS011;3740;50.700;7.184;2022-11-14T00:58:29;10.77;;;9.77;;
7398;SDS011;3740;50.700;7.184;2022-11-14T01:00:56;10.23;;;9.30;;
7398;SDS011;3740;50.700;7.184;2022-11-14T01:03:21;10.43;;;9.43;;
7398;SDS011;3740;50.700;7.184;2022-11-14T01:05:47;10.57;;;9.57;;
7398;SDS011;3740;50.700;7.184;2022-11-14T01:08:15;11.87;;;10.63;;
7398;SDS011;3740;50.700;7.184;2022-11-14T01:10:45;12.43;;;11.23;;
7398;SDS011;3740;50.700;7.184;2022-11-14T01:13:12;12.40;;;11.20;;
7398;SDS011;3740;50.700;7.184;2022-11-14T01:15:39;12.40;;;11.20;;
7398;SDS011;3740;50.700;7.184;2022-11-14T01:18:06;12.70;;;11.40;;
7398;SDS011;3740;50.700;7.184;2022-11-14T01:20:32;14.43;;;12.57;;
7398;SDS011;3740;50.700;7.184;2022-11-14T01:22:59;13.50;;;12.27;;
7398;SDS011;3740;50.700;7.184;2022-11-14T01:25:25;13.63;;;12.37;;
7398;SDS011;3740;50.700;7.184;2022-11-14T01:27:50;13.23;;;11.93;;
7398;SDS011;3740;50.700;7.184;2022-11-14T01:30:17;12.90;;;11.70;;
7398;SDS011;3740;50.700;7.184;2022-11-14T01:32:43;13.07;;;11.73;;
7398;SDS011;3740;50.700;7.184;2022-11-14T01:35:08;13.10;;;11.90;;
7398;SDS011;3740;50.700;7.184;2022-11-14T01:37:34;12.53;;;11.33;;
7398;SDS011;3740;50.700;7.184;2022-11-14T01:39:59;12.87;;;11.67;;
7398;SDS011;3740;50.700;7.184;2022-11-14T01:42:25;11.57;;;10.47;;
7398;SDS011;3740;50.700;7.184;2022-11-14T01:44:51;11.70;;;10.60;;
7398;SDS011;3740;50.700;7.184;2022-11-14T01:47:18;10.80;;;9.70;;
7398;SDS011;3740;50.700;7.184;2022-11-14T01:49:52;11.60;;;10.50;;
7398;SDS011;3740;50.700;7.184;2022-11-14T01:52:24;10.70;;;9.70;;
7398;SDS011;3740;50.700;7.184;2022-11-14T01:54:56;9.97;;;8.97;;
7398;SDS011;3740;50.700;7.184;2022-11-14T01:57:28;9.50;;;8.67;;
7398;SDS011;3740;50.700;7.184;2022-11-14T01:59:58;9.70;;;8.73;;
7398;SDS011;3740;50.700;7.184;2022-11-14T02:02:28;9.83;;;8.83;;
7398;SDS011;3740;50.700;7.184;2022-11-14T02:04:55;9.80;;;8.90;;
7398;SDS011;3740;50.700;7.184;2022-11-14T02:07:25;9.70;;;8.70;;
7398;SDS011;3740;50.700;7.184;2022-11-14T02:09:53;10.17;;;9.27;;
7398;SDS011;3740;50.700;7.184;2022-11-14T02:12:19;9.57;;;8.73;;
7398;SDS011;3740;50.700;7.184;2022-11-14T02:14:47;9.60;;;8.70;;
7398;SDS011;3740;50.700;7.184;2022-11-14T02:17:16;9.43;;;8.53;;
7398;SDS011;3740;50.700;7.184;2022-11-14T02:19:53;9.80;;;8.90;;
7398;SDS011;3740;50.700;7.184;2022-11-14T02:22:21;9.50;;;8.60;;
7398;SDS011;3740;50.700;7.184;2022-11-14T02:24:47;9.63;;;8.73;;
7398;SDS011;3740;50.700;7.184;2022-11-14T02:27:13;10.00;;;9.20;;
7398;SDS011;3740;50.700;7.184;2022-11-14T02:29:40;10.03;;;9.10;;
7398;SDS011;3740;50.700;7.184;2022-11-14T02:32:06;9.80;;;8.90;;
7398;SDS011;3740;50.700;7.184;2022-11-14T02:34:32;9.07;;;8.20;;
7398;SDS011;3740;50.700;7.184;2022-11-14T02:36:58;9.77;;;8.87;;
7398;SDS011;3740;50.700;7.184;2022-11-14T02:39:23;9.50;;;8.70;;
7398;SDS011;3740;50.700;7.184;2022-11-14T02:41:49;9.63;;;8.80;;
7398;SDS011;3740;50.700;7.184;2022-11-14T02:44:15;9.77;;;8.80;;
7398;SDS011;3740;50.700;7.184;2022-11-14T02:46:42;10.53;;;9.57;;
7398;SDS011;3740;50.700;7.184;2022-11-14T02:49:08;10.40;;;9.30;;
7398;SDS011;3740;50.700;7.184;2022-11-14T02:51:33;10.33;;;9.33;;
7398;SDS011;3740;50.700;7.184;2022-11-14T02:53:59;10.07;;;9.07;;
7398;SDS011;3740;50.700;7.184;2022-11-14T02:56:24;10.50;;;9.60;;
7398;SDS011;3740;50.700;7.184;2022-11-14T02:58:50;11.17;;;9.97;;
7398;SDS011;3740;50.700;7.184;2022-11-14T03:01:15;11.13;;;10.10;;
7398;SDS011;3740;50.700;7.184;2022-11-14T03:03:41;12.40;;;11.20;;
7398;SDS011;3740;50.700;7.184;2022-11-14T03:06:07;11.73;;;10.60;;
7398;SDS011;3740;50.700;7.184;2022-11-14T03:08:32;11.77;;;10.67;;
7398;SDS011;3740;50.700;7.184;2022-11-14T03:11:05;12.00;;;10.90;;
7398;SDS011;3740;50.700;7.184;2022-11-14T03:13:34;11.50;;;10.40;;
7398;SDS011;3740;50.700;7.184;2022-11-14T03:16:07;11.00;;;9.90;;
7398;SDS011;3740;50.700;7.184;2022-11-14T03:18:34;12.00;;;10.77;;
7398;SDS011;3740;50.700;7.184;2022-11-14T03:21:07;11.50;;;10.50;;
7398;SDS011;3740;50.700;7.184;2022-11-14T03:23:34;13.97;;;12.43;;
7398;SDS011;3740;50.700;7.184;2022-11-14T03:26:00;13.90;;;12.40;;
7398;SDS011;3740;50.700;7.184;2022-11-14T03:28:26;13.00;;;11.80;;
7398;SDS011;3740;50.700;7.184;2022-11-14T03:31:03;12.07;;;10.97;;
7398;SDS011;3740;50.700;7.184;2022-11-14T03:33:29;13.03;;;11.73;;
7398;SDS011;3740;50.700;7.184;2022-11-14T03:35:55;12.07;;;10.97;;
7398;SDS011;3740;50.700;7.184;2022-11-14T03:38:21;12.33;;;11.20;;
7398;SDS011;3740;50.700;7.184;2022-11-14T03:40:47;11.20;;;10.20;;
7398;SDS011;3740;50.700;7.184;2022-11-14T03:43:14;11.13;;;10.03;;
7398;SDS011;3740;50.700;7.184;2022-11-14T03:45:40;11.47;;;10.47;;
7398;SDS011;3740;50.700;7.184;2022-11-14T03:48:06;12.00;;;10.73;;
7398;SDS011;3740;50.700;7.184;2022-11-14T03:50:32;10.73;;;9.73;;
7398;SDS011;3740;50.700;7.184;2022-11-14T03:52:58;12.33;;;10.90;;
7398;SDS011;3740;50.700;7.184;2022-11-14T03:55:23;11.80;;;10.70;;
7398;SDS011;3740;50.700;7.184;2022-11-14T03:57:49;9.80;;;8.90;;
7398;SDS011;3740;50.700;7.184;2022-11-14T04:00:15;11.50;;;10.40;;
7398;SDS011;3740;50.700;7.184;2022-11-14T04:02:41;12.60;;;11.50;;
7398;SDS011;3740;50.700;7.184;2022-11-14T04:05:07;14.07;;;12.77;;
7398;SDS011;3740;50.700;7.184;2022-11-14T04:07:33;14.00;;;12.70;;
7398;SDS011;3740;50.700;7.184;2022-11-14T04:09:58;12.47;;;11.27;;
7398;SDS011;3740;50.700;7.184;2022-11-14T04:12:24;11.30;;;10.30;;
7398;SDS011;3740;50.700;7.184;2022-11-14T04:14:50;11.47;;;10.37;;
7398;SDS011;3740;50.700;7.184;2022-11-14T04:17:17;10.93;;;9.83;;
7398;SDS011;3740;50.700;7.184;2022-11-14T04:19:43;11.70;;;10.60;;
7398;SDS011;3740;50.700;7.184;2022-11-14T04:22:09;11.53;;;10.33;;
7398;SDS011;3740;50.700;7.184;2022-11-14T04:24:35;11.27;;;10.27;;
7398;SDS011;3740;50.700;7.184;2022-11-14T04:27:02;12.90;;;11.50;;
7398;SDS011;3740;50.700;7.184;2022-11-14T04:29:28;14.33;;;11.77;;
7398;SDS011;3740;50.700;7.184;2022-11-14T04:31:53;12.27;;;11.07;;
7398;SDS011;3740;50.700;7.184;2022-11-14T04:34:19;12.97;;;11.70;;
7398;SDS011;3740;50.700;7.184;2022-11-14T04:36:45;15.00;;;13.37;;
7398;SDS011;3740;50.700;7.184;2022-11-14T04:39:10;14.57;;;13.17;;
7398;SDS011;3740;50.700;7.184;2022-11-14T04:41:36;14.40;;;13.10;;
7398;SDS011;3740;50.700;7.184;2022-11-14T04:44:02;14.20;;;12.80;;
7398;SDS011;3740;50.700;7.184;2022-11-14T04:46:28;14.87;;;13.47;;
7398;SDS011;3740;50.700;7.184;2022-11-14T04:48:54;15.20;;;13.73;;
7398;SDS011;3740;50.700;7.184;2022-11-14T04:51:20;14.90;;;13.47;;
7398;SDS011;3740;50.700;7.184;2022-11-14T04:53:46;14.83;;;13.43;;
7398;SDS011;3740;50.700;7.184;2022-11-14T04:56:11;13.97;;;12.67;;
7398;SDS011;3740;50.700;7.184;2022-11-14T04:58:37;15.67;;;14.13;;
7398;SDS011;3740;50.700;7.184;2022-11-14T05:01:06;14.37;;;12.97;;
7398;SDS011;3740;50.700;7.184;2022-11-14T05:03:35;15.70;;;14.10;;
7398;SDS011;3740;50.700;7.184;2022-11-14T05:06:01;15.53;;;14.03;;
7398;SDS011;3740;50.700;7.184;2022-11-14T05:08:27;15.50;;;14.10;;
7398;SDS011;3740;50.700;7.184;2022-11-14T05:10:53;15.60;;;14.20;;
7398;SDS011;3740;50.700;7.184;2022-11-14T05:13:18;15.43;;;13.93;;
7398;SDS011;3740;50.700;7.184;2022-11-14T05:15:44;14.90;;;13.50;;
7398;SDS011;3740;50.700;7.184;2022-11-14T05:18:09;13.90;;;12.43;;
7398;SDS011;3740;50.700;7.184;2022-11-14T05:20:35;14.87;;;13.57;;
7398;SDS011;3740;50.700;7.184;2022-11-14T05:23:05;16.13;;;14.43;;
7398;SDS011;3740;50.700;7.184;2022-11-14T05:25:32;14.80;;;13.40;;
7398;SDS011;3740;50.700;7.184;2022-11-14T05:27:57;15.73;;;14.23;;
7398;SDS011;3740;50.700;7.184;2022-11-14T05:30:23;15.40;;;13.90;;
7398;SDS011;3740;50.700;7.184;2022-11-14T05:32:50;15.50;;;14.10;;
7398;SDS011;3740;50.700;7.184;2022-11-14T05:35:16;16.27;;;14.60;;
7398;SDS011;3740;50.700;7.184;2022-11-14T05:37:41;15.53;;;14.03;;
7398;SDS011;3740;50.700;7.184;2022-11-14T05:40:07;17.40;;;15.60;;
7398;SDS011;3740;50.700;7.184;2022-11-14T05:42:33;16.63;;;15.03;;
7398;SDS011;3740;50.700;7.184;2022-11-14T05:44:59;16.00;;;14.37;;
7398;SDS011;3740;50.700;7.184;2022-11-14T05:47:25;15.97;;;13.50;;
7398;SDS011;3740;50.700;7.184;2022-11-14T05:49:50;14.20;;;12.90;;
7398;SDS011;3740;50.700;7.184;2022-11-14T05:52:16;14.23;;;12.93;;
7398;SDS011;3740;50.700;7.184;2022-11-14T05:54:41;14.07;;;12.77;;
7398;SDS011;3740;50.700;7.184;2022-11-14T05:57:07;14.90;;;13.50;;
7398;SDS011;3740;50.700;7.184;2022-11-14T05:59:32;15.90;;;14.27;;
7398;SDS011;3740;50.700;7.184;2022-11-14T06:01:58;15.63;;;14.17;;
7398;SDS011;3740;50.700;7.184;2022-11-14T06:04:24;15.13;;;13.63;;
7398;SDS011;3740;50.700;7.184;2022-11-14T06:06:50;15.73;;;14.23;;
7398;SDS011;3740;50.700;7.184;2022-11-14T06:09:15;15.17;;;13.87;;
7398;SDS011;3740;50.700;7.184;2022-11-14T06:11:41;14.33;;;13.03;;
7398;SDS011;3740;50.700;7.184;2022-11-14T06:14:06;14.77;;;13.37;;
7398;SDS011;3740;50.700;7.184;2022-11-14T06:16:32;14.40;;;13.00;;
7398;SDS011;3740;50.700;7.184;2022-11-14T06:18:57;14.67;;;13.37;;
7398;SDS011;3740;50.700;7.184;2022-11-14T06:21:24;13.70;;;12.40;;
7398;SDS011;3740;50.700;7.184;2022-11-14T06:23:50;13.90;;;12.60;;
7398;SDS011;3740;50.700;7.184;2022-11-14T06:26:23;14.47;;;13.07;;
7398;SDS011;3740;50.700;7.184;2022-11-14T06:28:56;14.60;;;13.20;;
7398;SDS011;3740;50.700;7.184;2022-11-14T06:31:23;14.70;;;13.40;;
7398;SDS011;3740;50.700;7.184;2022-11-14T06:33:49;14.33;;;13.03;;
7398;SDS011;3740;50.700;7.184;2022-11-14T06:36:15;14.30;;;13.00;;
7398;SDS011;3740;50.700;7.184;2022-11-14T06:38:41;16.80;;;15.03;;
7398;SDS011;3740;50.700;7.184;2022-11-14T06:41:14;17.47;;;15.37;;
7398;SDS011;3740;50.700;7.184;2022-11-14T06:43:43;16.00;;;14.40;;
7398;SDS011;3740;50.700;7.184;2022-11-14T06:46:11;15.80;;;14.23;;
7398;SDS011;3740;50.700;7.184;2022-11-14T06:48:38;16.00;;;14.40;;
7398;SDS011;3740;50.700;7.184;2022-11-14T06:51:05;15.90;;;14.30;;
7398;SDS011;3740;50.700;7.184;2022-11-14T06:53:31;15.50;;;14.00;;
7398;SDS011;3740;50.700;7.184;2022-11-14T06:55:59;14.63;;;13.30;;
7398;SDS011;3740;50.700;7.184;2022-11-14T06:58:30;17.13;;;15.53;;
7398;SDS011;3740;50.700;7.184;2022-11-14T07:01:04;15.17;;;13.77;;
7398;SDS011;3740;50.700;7.184;2022-11-14T07:03:50;16.23;;;14.63;;
7398;SDS011;3740;50.700;7.184;2022-11-14T07:06:17;16.00;;;14.50;;
7398;SDS011;3740;50.700;7.184;2022-11-14T07:08:48;14.67;;;13.27;;
7398;SDS011;3740;50.700;7.184;2022-11-14T07:11:17;14.67;;;13.27;;
7398;SDS011;3740;50.700;7.184;2022-11-14T07:13:52;16.40;;;14.80;;
7398;SDS011;3740;50.700;7.184;2022-11-14T07:16:19;17.33;;;15.50;;
7398;SDS011;3740;50.700;7.184;2022-11-14T07:18:47;16.67;;;15.00;;
7398;SDS011;3740;50.700;7.184;2022-11-14T07:21:12;19.90;;;17.80;;
7398;SDS011;3740;50.700;7.184;2022-11-14T07:23:38;19.23;;;17.27;;
7398;SDS011;3740;50.700;7.184;2022-11-14T07:26:05;18.90;;;16.77;;
7398;SDS011;3740;50.700;7.184;2022-11-14T07:28:32;20.60;;;18.40;;
7398;SDS011;3740;50.700;7.184;2022-11-14T07:31:06;22.10;;;19.17;;
7398;SDS011;3740;50.700;7.184;2022-11-14T07:33:34;21.80;;;19.60;;
7398;SDS011;3740;50.700;7.184;2022-11-14T07:35:59;22.17;;;19.83;;
7398;SDS011;3740;50.700;7.184;2022-11-14T07:38:26;20.87;;;18.67;;
7398;SDS011;3740;50.700;7.184;2022-11-14T07:40:52;22.43;;;19.30;;
7398;SDS011;3740;50.700;7.184;2022-11-14T07:43:19;19.87;;;17.77;;
7398;SDS011;3740;50.700;7.184;2022-11-14T07:45:45;19.60;;;17.60;;
7398;SDS011;3740;50.700;7.184;2022-11-14T07:48:11;23.67;;;20.23;;
7398;SDS011;3740;50.700;7.184;2022-11-14T07:50:36;21.77;;;19.47;;
7398;SDS011;3740;50.700;7.184;2022-11-14T07:53:02;22.00;;;19.77;;
7398;SDS011;3740;50.700;7.184;2022-11-14T07:55:28;21.53;;;19.23;;
7398;SDS011;3740;50.700;7.184;2022-11-14T07:57:56;22.23;;;19.93;;
7398;SDS011;3740;50.700;7.184;2022-11-14T08:00:23;22.67;;;20.23;;
7398;SDS011;3740;50.700;7.184;2022-11-14T08:02:58;23.70;;;20.17;;
7398;SDS011;3740;50.700;7.184;2022-11-14T08:05:24;22.17;;;19.77;;
7398;SDS011;3740;50.700;7.184;2022-11-14T08:07:49;21.77;;;19.57;;
7398;SDS011;3740;50.700;7.184;2022-11-14T08:10:16;23.60;;;20.50;;
7398;SDS011;3740;50.700;7.184;2022-11-14T08:12:42;22.10;;;19.83;;
7398;SDS011;3740;50.700;7.184;2022-11-14T08:15:10;21.57;;;19.33;;
7398;SDS011;3740;50.700;7.184;2022-11-14T08:17:37;21.40;;;19.20;;
7398;SDS011;3740;50.700;7.184;2022-11-14T08:20:03;25.00;;;20.80;;
7398;SDS011;3740;50.700;7.184;2022-11-14T08:22:30;21.70;;;19.50;;
7398;SDS011;3740;50.700;7.184;2022-11-14T08:24:56;22.90;;;19.70;;
7398;SDS011;3740;50.700;7.184;2022-11-14T08:27:21;21.97;;;19.63;;
7398;SDS011;3740;50.700;7.184;2022-11-14T08:29:47;21.07;;;18.97;;
7398;SDS011;3740;50.700;7.184;2022-11-14T08:32:15;22.63;;;20.10;;
7398;SDS011;3740;50.700;7.184;2022-11-14T08:34:41;22.00;;;19.47;;
7398;SDS011;3740;50.700;7.184;2022-11-14T08:37:06;21.90;;;18.93;;
7398;SDS011;3740;50.700;7.184;2022-11-14T08:39:32;20.87;;;18.20;;
7398;SDS011;3740;50.700;7.184;2022-11-14T08:42:01;19.77;;;17.67;;
7398;SDS011;3740;50.700;7.184;2022-11-14T08:44:27;20.53;;;18.33;;
7398;SDS011;3740;50.700;7.184;2022-11-14T08:46:53;20.43;;;18.33;;
7398;SDS011;3740;50.700;7.184;2022-11-14T08:49:18;20.70;;;18.50;;
7398;SDS011;3740;50.700;7.184;2022-11-14T08:51:44;20.00;;;17.90;;
7398;SDS011;3740;50.700;7.184;2022-11-14T08:54:10;19.93;;;17.63;;
7398;SDS011;3740;50.700;7.184;2022-11-14T08:56:35;21.37;;;19.07;;
7398;SDS011;3740;50.700;7.184;2022-11-14T08:59:04;22.00;;;18.50;;
7398;SDS011;3740;50.700;7.184;2022-11-14T09:01:30;21.60;;;19.17;;
7398;SDS011;3740;50.700;7.184;2022-11-14T09:03:57;19.80;;;17.77;;
7398;SDS011;3740;50.700;7.184;2022-11-14T09:06:23;21.03;;;18.83;;
7398;SDS011;3740;50.700;7.184;2022-11-14T09:08:49;20.83;;;18.63;;
7398;SDS011;3740;50.700;7.184;2022-11-14T09:11:14;19.33;;;17.27;;
7398;SDS011;3740;50.700;7.184;2022-11-14T09:13:40;20.93;;;18.63;;
7398;SDS011;3740;50.700;7.184;2022-11-14T09:16:05;21.47;;;19.17;;
7398;SDS011;3740;50.700;7.184;2022-11-14T09:18:31;21.07;;;18.70;;
7398;SDS011;3740;50.700;7.184;2022-11-14T09:21:00;21.30;;;18.90;;
7398;SDS011;3740;50.700;7.184;2022-11-14T09:23:28;21.33;;;19.03;;
7398;SDS011;3740;50.700;7.184;2022-11-14T09:25:54;19.83;;;17.83;;
7398;SDS011;3740;50.700;7.184;2022-11-14T09:28:21;18.83;;;16.83;;
7398;SDS011;3740;50.700;7.184;2022-11-14T09:30:48;19.70;;;17.70;;
7398;SDS011;3740;50.700;7.184;2022-11-14T09:33:20;21.20;;;18.17;;
7398;SDS011;3740;50.700;7.184;2022-11-14T09:35:45;19.57;;;17.50;;
7398;SDS011;3740;50.700;7.184;2022-11-14T09:38:11;20.17;;;18.00;;
7398;SDS011;3740;50.700;7.184;2022-11-14T09:40:47;20.50;;;18.37;;
7398;SDS011;3740;50.700;7.184;2022-11-14T09:43:32;19.23;;;17.13;;
7398;SDS011;3740;50.700;7.184;2022-11-14T09:45:59;19.63;;;17.60;;
7398;SDS011;3740;50.700;7.184;2022-11-14T09:48:27;19.87;;;17.83;;
7398;SDS011;3740;50.700;7.184;2022-11-14T09:53:33;19.13;;;17.07;;
7398;SDS011;3740;50.700;7.184;2022-11-14T09:56:12;19.63;;;17.10;;
7398;SDS011;3740;50.700;7.184;2022-11-14T09:58:44;19.80;;;17.17;;
7398;SDS011;3740;50.700;7.184;2022-11-14T10:01:12;19.40;;;17.50;;
7398;SDS011;3740;50.700;7.184;2022-11-14T10:13:12;20.20;;;18.30;;
7398;SDS011;3740;50.700;7.184;2022-11-14T10:15:57;19.97;;;17.93;;
7398;SDS011;3740;50.700;7.184;2022-11-14T10:27:16;19.63;;;17.63;;
7398;SDS011;3740;50.700;7.184;2022-11-14T10:32:39;21.93;;;19.37;;
7398;SDS011;3740;50.700;7.184;2022-11-14T10:40:37;20.53;;;18.37;;
7398;SDS011;3740;50.700;7.184;2022-11-14T10:43:47;21.70;;;19.00;;
7398;SDS011;3740;50.700;7.184;2022-11-14T10:48:35;20.57;;;18.43;;
7398;SDS011;3740;50.700;7.184;2022-11-14T10:51:13;20.13;;;17.90;;
7398;SDS011;3740;50.700;7.184;2022-11-14T10:56:29;20.93;;;18.70;;
7398;SDS011;3740;50.700;7.184;2022-11-14T10:58:55;19.97;;;17.83;;
7398;SDS011;3740;50.700;7.184;2022-11-14T11:04:26;20.63;;;18.40;;
7398;SDS011;3740;50.700;7.184;2022-11-14T11:06:55;21.53;;;19.23;;
7398;SDS011;3740;50.700;7.184;2022-11-14T11:09:33;22.10;;;18.97;;
7398;SDS011;3740;50.700;7.184;2022-11-14T11:12:21;22.70;;;20.30;;
7398;SDS011;3740;50.700;7.184;2022-11-14T11:14:48;21.70;;;19.13;;
7398;SDS011;3740;50.700;7.184;2022-11-14T11:17:40;23.67;;;19.60;;
7398;SDS011;3740;50.700;7.184;2022-11-14T11:20:29;21.57;;;19.23;;
7398;SDS011;3740;50.700;7.184;2022-11-14T11:25:35;24.03;;;19.40;;
7398;SDS011;3740;50.700;7.184;2022-11-14T11:28:02;23.47;;;20.27;;
7398;SDS011;3740;50.700;7.184;2022-11-14T11:30:35;22.77;;;19.20;;
7398;SDS011;3740;50.700;7.184;2022-11-14T11:38:37;23.23;;;20.60;;
7398;SDS011;3740;50.700;7.184;2022-11-14T11:43:41;22.03;;;19.67;;
7398;SDS011;3740;50.700;7.184;2022-11-14T11:46:34;21.17;;;18.90;;
7398;SDS011;3740;50.700;7.184;2022-11-14T11:48:58;21.73;;;19.43;;
7398;SDS011;3740;50.700;7.184;2022-11-14T11:51:31;23.47;;;20.30;;
7398;SDS011;3740;50.700;7.184;2022-11-14T11:54:03;22.70;;;19.40;;
7398;SDS011;3740;50.700;7.184;2022-11-14T11:56:37;23.83;;;19.97;;
7398;SDS011;3740;50.700;7.184;2022-11-14T11:59:16;24.80;;;20.20;;
7398;SDS011;3740;50.700;7.184;2022-11-14T12:01:50;22.40;;;19.20;;
7398;SDS011;3740;50.700;7.184;2022-11-14T12:04:16;22.70;;;19.67;;
7398;SDS011;3740;50.700;7.184;2022-11-14T12:06:46;20.57;;;18.33;;
7398;SDS011;3740;50.700;7.184;2022-11-14T12:09:19;21.87;;;18.83;;
7398;SDS011;3740;50.700;7.184;2022-11-14T12:11:51;19.60;;;17.50;;
7398;SDS011;3740;50.700;7.184;2022-11-14T12:22:28;19.83;;;17.80;;
7398;SDS011;3740;50.700;7.184;2022-11-14T12:25:07;22.63;;;18.37;;
7398;SDS011;3740;50.700;7.184;2022-11-14T12:30:36;18.97;;;17.07;;
7398;SDS011;3740;50.700;7.184;2022-11-14T12:33:09;19.13;;;17.27;;
7398;SDS011;3740;50.700;7.184;2022-11-14T12:35:47;19.83;;;17.73;;
7398;SDS011;3740;50.700;7.184;2022-11-14T12:38:16;18.53;;;16.63;;
7398;SDS011;3740;50.700;7.184;2022-11-14T12:40:54;19.80;;;17.07;;
7398;SDS011;3740;50.700;7.184;2022-11-14T12:48:27;19.87;;;17.77;;
7398;SDS011;3740;50.700;7.184;2022-11-14T12:50:55;20.57;;;18.30;;
7398;SDS011;3740;50.700;7.184;2022-11-14T12:53:35;21.63;;;18.93;;
7398;SDS011;3740;50.700;7.184;2022-11-14T13:04:44;20.27;;;18.07;;
7398;SDS011;3740;50.700;7.184;2022-11-14T13:07:25;19.03;;;17.13;;
7398;SDS011;3740;50.700;7.184;2022-11-14T13:15:52;18.67;;;16.77;;
7398;SDS011;3740;50.700;7.184;2022-11-14T13:27:27;17.33;;;15.63;;
7398;SDS011;3740;50.700;7.184;2022-11-14T13:29:57;19.23;;;16.53;;
7398;SDS011;3740;50.700;7.184;2022-11-14T13:35:25;18.87;;;16.90;;
7398;SDS011;3740;50.700;7.184;2022-11-14T13:38:11;19.10;;;17.10;;
7398;SDS011;3740;50.700;7.184;2022-11-14T13:46:23;19.03;;;17.03;;
7398;SDS011;3740;50.700;7.184;2022-11-14T13:49:28;18.70;;;16.83;;
7398;SDS011;3740;50.700;7.184;2022-11-14T13:52:12;17.70;;;15.90;;
7398;SDS011;3740;50.700;7.184;2022-11-14T13:54:48;18.30;;;16.43;;
7398;SDS011;3740;50.700;7.184;2022-11-14T14:00:10;17.30;;;15.53;;
7398;SDS011;3740;50.700;7.184;2022-11-14T14:02:54;17.30;;;15.67;;
7398;SDS011;3740;50.700;7.184;2022-11-14T14:11:19;17.37;;;15.53;;
7398;SDS011;3740;50.700;7.184;2022-11-14T14:14:43;17.80;;;16.10;;
7398;SDS011;3740;50.700;7.184;2022-11-14T14:17:06;18.20;;;16.40;;
7398;SDS011;3740;50.700;7.184;2022-11-14T14:19:42;17.43;;;15.67;;
7398;SDS011;3740;50.700;7.184;2022-11-14T14:22:24;17.27;;;15.53;;
7398;SDS011;3740;50.700;7.184;2022-11-14T14:32:35;17.50;;;15.80;;
7398;SDS011;3740;50.700;7.184;2022-11-14T14:35:47;17.80;;;16.00;;
7398;SDS011;3740;50.700;7.184;2022-11-14T14:37:49;16.43;;;14.80;;
7398;SDS011;3740;50.700;7.184;2022-11-14T14:40:24;16.77;;;15.07;;
7398;SDS011;3740;50.700;7.184;2022-11-14T14:42:52;16.20;;;14.60;;
7398;SDS011;3740;50.700;7.184;2022-11-14T14:45:19;15.70;;;14.17;;
7398;SDS011;3740;50.700;7.184;2022-11-14T14:47:47;17.37;;;15.57;;
7398;SDS011;3740;50.700;7.184;2022-11-14T14:50:36;16.33;;;14.83;;
7398;SDS011;3740;50.700;7.184;2022-11-14T14:53:06;15.53;;;14.10;;
7398;SDS011;3740;50.700;7.184;2022-11-14T14:55:49;15.57;;;14.17;;
7398;SDS011;3740;50.700;7.184;2022-11-14T15:00:56;14.90;;;13.43;;
7398;SDS011;3740;50.700;7.184;2022-11-14T15:03:22;15.30;;;13.80;;
7398;SDS011;3740;50.700;7.184;2022-11-14T15:05:56;14.20;;;12.83;;
7398;SDS011;3740;50.700;7.184;2022-11-14T15:08:27;15.10;;;13.57;;
7398;SDS011;3740;50.700;7.184;2022-11-14T15:10:55;14.67;;;13.27;;
7398;SDS011;3740;50.700;7.184;2022-11-14T15:13:23;15.33;;;13.90;;
7398;SDS011;3740;50.700;7.184;2022-11-14T15:15:51;15.30;;;13.70;;
7398;SDS011;3740;50.700;7.184;2022-11-14T15:18:22;15.27;;;13.87;;
7398;SDS011;3740;50.700;7.184;2022-11-14T15:21:05;14.37;;;13.00;;
7398;SDS011;3740;50.700;7.184;2022-11-14T15:23:33;15.27;;;13.67;;
7398;SDS011;3740;50.700;7.184;2022-11-14T15:26:01;16.13;;;14.63;;
7398;SDS011;3740;50.700;7.184;2022-11-14T15:28:28;14.77;;;13.33;;
7398;SDS011;3740;50.700;7.184;2022-11-14T15:30:55;18.27;;;16.57;;
7398;SDS011;3740;50.700;7.184;2022-11-14T15:33:24;15.80;;;14.30;;
7398;SDS011;3740;50.700;7.184;2022-11-14T15:36:12;17.07;;;15.37;;
7398;SDS011;3740;50.700;7.184;2022-11-14T15:38:56;17.20;;;15.50;;
7398;SDS011;3740;50.700;7.184;2022-11-14T15:41:23;15.37;;;13.87;;
7398;SDS011;3740;50.700;7.184;2022-11-14T15:43:52;14.53;;;13.17;;
7398;SDS011;3740;50.700;7.184;2022-11-14T15:46:26;14.93;;;13.33;;
7398;SDS011;3740;50.700;7.184;2022-11-14T15:51:53;14.23;;;12.97;;
7398;SDS011;3740;50.700;7.184;2022-11-14T15:54:26;15.37;;;13.87;;
7398;SDS011;3740;50.700;7.184;2022-11-14T15:57:11;14.10;;;12.80;;
7398;SDS011;3740;50.700;7.184;2022-11-14T15:59:38;14.57;;;13.27;;
7398;SDS011;3740;50.700;7.184;2022-11-14T16:02:11;14.13;;;12.90;;
7398;SDS011;3740;50.700;7.184;2022-11-14T16:04:41;14.60;;;13.30;;
7398;SDS011;3740;50.700;7.184;2022-11-14T16:07:09;15.00;;;13.60;;
7398;SDS011;3740;50.700;7.184;2022-11-14T16:09:39;14.07;;;12.67;;
7398;SDS011;3740;50.700;7.184;2022-11-14T16:12:05;14.80;;;13.40;;
7398;SDS011;3740;50.700;7.184;2022-11-14T16:14:31;13.90;;;12.63;;
7398;SDS011;3740;50.700;7.184;2022-11-14T16:16:57;15.60;;;14.00;;
7398;SDS011;3740;50.700;7.184;2022-11-14T16:19:22;16.00;;;14.50;;
7398;SDS011;3740;50.700;7.184;2022-11-14T16:21:48;15.67;;;14.27;;
7398;SDS011;3740;50.700;7.184;2022-11-14T16:24:15;15.73;;;14.03;;
7398;SDS011;3740;50.700;7.184;2022-11-14T16:26:43;15.70;;;14.23;;
7398;SDS011;3740;50.700;7.184;2022-11-14T16:29:09;15.80;;;14.30;;
7398;SDS011;3740;50.700;7.184;2022-11-14T16:31:35;15.93;;;14.53;;
7398;SDS011;3740;50.700;7.184;2022-11-14T16:34:01;15.63;;;14.13;;
7398;SDS011;3740;50.700;7.184;2022-11-14T16:36:27;15.73;;;14.33;;
7398;SDS011;3740;50.700;7.184;2022-11-14T16:38:55;17.53;;;15.83;;
7398;SDS011;3740;50.700;7.184;2022-11-14T16:41:23;16.67;;;15.17;;
7398;SDS011;3740;50.700;7.184;2022-11-14T16:43:49;16.40;;;14.87;;
7398;SDS011;3740;50.700;7.184;2022-11-14T16:46:18;16.40;;;14.90;;
7398;SDS011;3740;50.700;7.184;2022-11-14T16:48:43;16.70;;;15.20;;
7398;SDS011;3740;50.700;7.184;2022-11-14T16:51:09;17.00;;;15.50;;
7398;SDS011;3740;50.700;7.184;2022-11-14T16:53:34;16.33;;;14.90;;
7398;SDS011;3740;50.700;7.184;2022-11-14T16:56:00;17.80;;;16.10;;
7398;SDS011;3740;50.700;7.184;2022-11-14T16:58:27;17.43;;;15.83;;
7398;SDS011;3740;50.700;7.184;2022-11-14T17:00:52;16.47;;;14.90;;